createdAt,value
2018-07-14T00:01:48.369Z,6.47
2018-07-14T00:04:17.300Z,7.00
2018-07-14T00:06:46.588Z,7.63
2018-07-14T00:09:15.704Z,7.53
2018-07-14T00:11:44.624Z,7.30
2018-07-14T00:14:13.437Z,7.07
2018-07-14T00:16:42.437Z,7.70
2018-07-14T00:19:11.422Z,7.30
2018-07-14T00:21:40.268Z,7.27
2018-07-14T00:24:09.328Z,7.30
2018-07-14T00:26:38.162Z,7.83
2018-07-14T00:29:07.318Z,7.83
2018-07-14T00:31:36.228Z,7.90
2018-07-14T00:34:05.155Z,7.77
2018-07-14T00:36:33.910Z,8.00
2018-07-14T00:39:03.616Z,7.60
2018-07-14T00:41:32.536Z,7.20
2018-07-14T00:44:01.257Z,7.53
2018-07-14T00:46:30.120Z,7.67
2018-07-14T00:48:58.928Z,7.17
2018-07-14T00:51:27.864Z,8.17
2018-07-14T00:53:56.732Z,7.50
2018-07-14T00:56:25.596Z,7.60
2018-07-14T00:58:54.508Z,7.67
2018-07-14T01:01:23.367Z,6.70
2018-07-14T01:03:52.316Z,7.73
2018-07-14T01:06:21.257Z,7.47
2018-07-14T01:08:50.131Z,7.60
2018-07-14T01:11:18.914Z,7.97
2018-07-14T01:13:47.734Z,7.90
2018-07-14T01:16:16.632Z,7.30
2018-07-14T01:18:45.495Z,7.60
2018-07-14T01:21:14.267Z,7.47
2018-07-14T01:23:43.144Z,7.60
2018-07-14T01:26:12.075Z,6.93
2018-07-14T01:28:40.996Z,6.67
2018-07-14T01:31:09.843Z,7.57
2018-07-14T01:33:38.586Z,7.37
2018-07-14T01:36:07.468Z,8.00
2018-07-14T01:38:36.304Z,8.50
2018-07-14T01:41:05.195Z,7.63
2018-07-14T01:43:34.052Z,7.50
2018-07-14T01:46:02.924Z,7.60
2018-07-14T01:48:31.803Z,7.40
2018-07-14T01:51:00.644Z,7.33
2018-07-14T01:53:29.537Z,7.87
2018-07-14T01:55:58.434Z,6.83
2018-07-14T01:58:27.277Z,6.67
2018-07-14T02:00:56.152Z,7.23
2018-07-14T02:03:25.000Z,8.90
2018-07-14T02:05:53.789Z,7.30
2018-07-14T02:08:22.615Z,7.27
2018-07-14T02:10:51.544Z,7.40
2018-07-14T02:13:20.392Z,6.97
2018-07-14T02:15:49.263Z,8.10
2018-07-14T02:18:18.423Z,7.33
2018-07-14T02:20:47.260Z,8.93
2018-07-14T02:23:15.969Z,7.40
2018-07-14T02:25:44.924Z,8.30
2018-07-14T02:28:13.780Z,7.40
2018-07-14T02:30:42.658Z,7.67
2018-07-14T02:33:11.517Z,7.87
2018-07-14T02:35:40.376Z,7.40
2018-07-14T02:38:09.251Z,7.87
2018-07-14T02:40:38.127Z,7.07
2018-07-14T02:43:07.014Z,7.80
2018-07-14T02:45:35.876Z,8.30
2018-07-14T02:48:04.977Z,7.80
2018-07-14T02:50:33.816Z,7.30
2018-07-14T02:53:03.291Z,7.27
2018-07-14T02:55:32.273Z,7.67
2018-07-14T02:58:01.222Z,8.20
2018-07-14T03:00:30.119Z,6.90
2018-07-14T03:02:58.866Z,8.27
2018-07-14T03:05:27.716Z,7.90
2018-07-14T03:07:56.567Z,8.77
2018-07-14T03:10:25.449Z,7.80
2018-07-14T03:12:54.367Z,7.70
2018-07-14T03:15:23.213Z,7.37
2018-07-14T03:17:52.095Z,7.63
2018-07-14T03:20:21.037Z,8.10
2018-07-14T03:22:49.899Z,6.73
2018-07-14T03:25:18.752Z,7.50
2018-07-14T03:27:47.685Z,8.43
2018-07-14T03:30:16.577Z,7.60
2018-07-14T03:32:45.400Z,8.07
2018-07-14T03:35:14.439Z,7.00
2018-07-14T03:37:43.311Z,8.30
2018-07-14T03:40:12.148Z,7.60
2018-07-14T03:42:40.910Z,7.87
2018-07-14T03:45:09.769Z,8.13
2018-07-14T03:47:38.687Z,7.83
2018-07-14T03:50:07.559Z,8.10
2018-07-14T03:52:36.433Z,7.33
2018-07-14T03:55:06.374Z,7.77
2018-07-14T03:57:35.292Z,7.70
2018-07-14T04:00:04.674Z,7.50
2018-07-14T04:02:33.883Z,7.47
2018-07-14T04:05:03.064Z,7.40
2018-07-14T04:07:31.968Z,8.33
2018-07-14T04:10:00.844Z,8.47
2018-07-14T04:12:29.739Z,8.20
2018-07-14T04:14:58.605Z,7.67
2018-07-14T04:17:27.479Z,7.70
2018-07-14T04:19:56.391Z,7.77
2018-07-14T04:22:25.256Z,7.43
2018-07-14T04:24:54.127Z,7.47
2018-07-14T04:27:22.983Z,7.47
2018-07-14T04:29:51.834Z,7.50
2018-07-14T04:32:20.687Z,7.40
2018-07-14T04:34:49.550Z,8.40
2018-07-14T04:37:18.772Z,15.73
2018-07-14T04:39:47.692Z,8.90
2018-07-14T04:42:16.647Z,7.47
2018-07-14T04:44:45.495Z,7.77
2018-07-14T04:47:14.378Z,8.20
2018-07-14T04:49:43.296Z,8.40
2018-07-14T04:52:12.193Z,8.10
2018-07-14T04:54:41.844Z,8.13
2018-07-14T04:57:11.176Z,6.77
2018-07-14T04:59:42.517Z,9.17
2018-07-14T05:02:11.752Z,9.37
2018-07-14T05:04:40.881Z,7.30
2018-07-14T05:07:10.307Z,6.63
2018-07-14T05:09:40.214Z,7.53
2018-07-14T05:12:09.473Z,7.57
2018-07-14T05:14:38.759Z,8.53
2018-07-14T05:17:07.754Z,7.67
2018-07-14T05:19:36.640Z,7.40
2018-07-14T05:22:05.855Z,7.80
2018-07-14T05:24:34.883Z,7.30
2018-07-14T05:27:03.788Z,8.10
2018-07-14T05:29:32.671Z,7.93
2018-07-14T05:32:01.611Z,8.53
2018-07-14T05:34:30.480Z,7.77
2018-07-14T05:37:08.276Z,8.03
2018-07-14T05:47:22.380Z,7.20
2018-07-14T05:49:52.416Z,6.37
2018-07-14T05:52:22.343Z,6.00
2018-07-14T05:54:52.218Z,6.47
2018-07-14T05:57:22.100Z,6.80
2018-07-14T05:59:55.643Z,6.60
2018-07-14T06:02:28.727Z,7.10
2018-07-14T06:04:59.665Z,6.60
2018-07-14T06:07:31.339Z,7.37
2018-07-14T06:10:00.721Z,6.20
2018-07-14T06:12:30.807Z,6.10
2018-07-14T06:15:02.365Z,7.20
2018-07-14T06:17:31.564Z,6.40
2018-07-14T06:20:00.787Z,6.43
2018-07-14T06:22:29.775Z,6.80
2018-07-14T06:24:58.657Z,6.60
2018-07-14T06:27:27.607Z,6.27
2018-07-14T06:29:56.496Z,6.40
2018-07-14T06:32:25.368Z,6.10
2018-07-14T06:34:54.272Z,6.77
2018-07-14T06:37:23.139Z,6.70
2018-07-14T06:39:52.071Z,7.77
2018-07-14T06:42:20.817Z,7.70
2018-07-14T06:44:49.826Z,7.10
2018-07-14T06:47:18.522Z,6.63
2018-07-14T06:49:47.380Z,7.30
2018-07-14T06:52:16.280Z,6.50
2018-07-14T06:54:45.168Z,7.00
2018-07-14T06:57:14.071Z,6.83
2018-07-14T06:59:42.945Z,6.87
2018-07-14T07:02:11.832Z,6.90
2018-07-14T07:04:40.708Z,6.67
2018-07-14T07:07:09.636Z,7.73
2018-07-14T07:09:38.495Z,6.57
2018-07-14T07:12:07.411Z,7.13
2018-07-14T07:14:36.351Z,7.80
2018-07-14T07:17:05.212Z,7.80
2018-07-14T07:19:34.089Z,7.10
2018-07-14T07:22:03.064Z,7.30
2018-07-14T07:24:31.919Z,6.37
2018-07-14T07:27:00.825Z,6.43
2018-07-14T07:29:29.680Z,6.30
2018-07-14T07:31:58.607Z,7.13
2018-07-14T07:34:27.532Z,6.47
2018-07-14T07:36:56.411Z,6.77
2018-07-14T07:39:25.667Z,5.23
2018-07-14T07:41:54.544Z,6.30
2018-07-14T07:44:23.408Z,6.20
2018-07-14T07:46:52.275Z,6.40
2018-07-14T07:49:21.141Z,6.70
2018-07-14T07:51:50.024Z,6.90
2018-07-14T07:54:18.766Z,6.33
2018-07-14T07:56:47.682Z,5.40
2018-07-14T07:59:16.577Z,5.40
2018-07-14T08:01:45.479Z,6.00
2018-07-14T08:04:14.358Z,5.50
2018-07-14T08:06:43.106Z,5.10
2018-07-14T08:09:11.967Z,5.80
2018-07-14T08:11:40.812Z,5.50
2018-07-14T08:14:09.766Z,6.20
2018-07-14T08:16:38.646Z,5.40
2018-07-14T08:19:07.627Z,6.07
2018-07-14T08:21:36.516Z,4.90
2018-07-14T08:24:05.470Z,5.73
2018-07-14T08:26:34.369Z,5.70
2018-07-14T08:29:03.158Z,5.07
2018-07-14T08:31:32.005Z,5.10
2018-07-14T08:34:00.887Z,4.87
2018-07-14T08:36:29.792Z,4.30
2018-07-14T08:38:58.684Z,5.33
2018-07-14T08:41:27.552Z,4.63
2018-07-14T08:43:56.447Z,5.87
2018-07-14T08:46:25.437Z,5.10
2018-07-14T08:48:54.356Z,5.33
2018-07-14T08:51:23.289Z,4.90
2018-07-14T08:53:52.114Z,5.53
2018-07-14T08:56:21.011Z,5.53
2018-07-14T08:58:49.882Z,4.30
2018-07-14T09:01:18.756Z,5.90
2018-07-14T09:03:47.624Z,4.50
2018-07-14T09:06:16.385Z,5.73
2018-07-14T09:08:45.273Z,5.90
2018-07-14T09:11:14.139Z,4.90
2018-07-14T09:13:42.990Z,5.03
2018-07-14T09:16:11.824Z,4.63
2018-07-14T09:18:40.671Z,4.50
2018-07-14T09:21:09.470Z,5.60
2018-07-14T09:23:38.331Z,4.10
2018-07-14T09:26:07.626Z,5.20
2018-07-14T09:28:36.520Z,4.23
2018-07-14T09:31:05.393Z,4.00
2018-07-14T09:33:34.293Z,4.83
2018-07-14T09:36:03.208Z,4.73
2018-07-14T09:38:32.223Z,4.50
2018-07-14T09:41:01.093Z,4.83
2018-07-14T09:43:29.925Z,3.90
2018-07-14T09:45:58.763Z,4.00
2018-07-14T09:48:27.827Z,4.90
2018-07-14T09:50:56.713Z,4.73
2018-07-14T09:53:25.547Z,4.13
2018-07-14T09:55:54.425Z,4.80
2018-07-14T09:58:23.363Z,4.20
2018-07-14T10:00:58.431Z,4.23
2018-07-14T10:03:27.382Z,4.23
2018-07-14T10:05:56.239Z,5.47
2018-07-14T10:08:25.119Z,4.17
2018-07-14T10:10:54.016Z,4.50
2018-07-14T10:13:22.902Z,4.60
2018-07-14T10:15:51.740Z,4.40
2018-07-14T10:18:20.598Z,3.63
2018-07-14T10:20:49.548Z,4.20
2018-07-14T10:23:18.427Z,4.13
2018-07-14T10:25:47.357Z,3.57
2018-07-14T10:28:16.231Z,4.10
2018-07-14T10:30:45.116Z,4.20
2018-07-14T10:33:14.016Z,3.60
2018-07-14T10:35:42.923Z,4.00
2018-07-14T10:38:11.768Z,3.60
2018-07-14T10:40:40.686Z,5.00
2018-07-14T10:43:09.548Z,4.60
2018-07-14T10:45:38.434Z,6.30
2018-07-14T10:48:08.399Z,8.50
2018-07-14T10:50:37.620Z,7.73
2018-07-14T10:53:06.496Z,5.20
2018-07-14T10:55:35.369Z,5.07
2018-07-14T10:58:04.324Z,6.37
2018-07-14T11:00:33.890Z,16.07
2018-07-14T11:03:03.916Z,5.50
2018-07-14T11:05:32.765Z,6.43
2018-07-14T11:08:01.645Z,6.60
2018-07-14T11:10:30.530Z,13.50
2018-07-14T11:12:59.397Z,5.00
2018-07-14T11:15:28.263Z,5.03
2018-07-14T11:17:57.225Z,4.43
2018-07-14T11:20:26.083Z,5.63
2018-07-14T11:22:55.032Z,4.80
2018-07-14T11:25:23.814Z,14.10
2018-07-14T11:27:52.743Z,5.23
2018-07-14T11:30:21.710Z,4.10
2018-07-14T11:32:50.483Z,7.47
2018-07-14T11:35:19.359Z,4.20
2018-07-14T11:37:48.215Z,6.10
2018-07-14T11:40:17.142Z,4.77
2018-07-14T11:42:46.008Z,4.73
2018-07-14T11:45:14.878Z,5.70
2018-07-14T11:47:43.765Z,4.43
2018-07-14T11:50:12.686Z,4.20
2018-07-14T11:52:41.565Z,4.70
2018-07-14T11:55:10.754Z,4.60
2018-07-14T11:57:39.874Z,4.43
2018-07-14T12:00:08.782Z,4.00
2018-07-14T12:02:37.659Z,5.00
2018-07-14T12:05:06.641Z,4.40
2018-07-14T12:07:35.502Z,6.10
2018-07-14T12:10:04.484Z,4.90
2018-07-14T12:12:33.360Z,4.37
2018-07-14T12:15:02.279Z,4.37
2018-07-14T12:17:31.196Z,5.33
2018-07-14T12:20:00.069Z,6.67
2018-07-14T12:22:29.000Z,5.93
2018-07-14T12:24:57.843Z,4.93
2018-07-14T12:27:27.000Z,7.70
2018-07-14T12:29:56.004Z,5.30
2018-07-14T12:32:24.891Z,5.10
2018-07-14T12:34:53.733Z,4.53
2018-07-14T12:37:22.577Z,4.50
2018-07-14T12:39:51.443Z,4.30
2018-07-14T12:42:20.335Z,4.70
2018-07-14T12:44:49.102Z,4.80
2018-07-14T12:47:17.960Z,3.63
2018-07-14T12:49:46.819Z,4.70
2018-07-14T12:52:15.735Z,4.40
2018-07-14T12:54:44.654Z,4.03
2018-07-14T12:57:13.535Z,4.17
2018-07-14T12:59:42.412Z,3.87
2018-07-14T13:02:11.287Z,4.73
2018-07-14T13:04:40.130Z,4.03
2018-07-14T13:07:09.052Z,3.80
2018-07-14T13:09:37.894Z,4.27
2018-07-14T13:12:06.761Z,4.20
2018-07-14T13:14:35.660Z,4.30
2018-07-14T13:17:04.901Z,4.10
2018-07-14T13:19:33.743Z,4.10
2018-07-14T13:22:02.679Z,3.97
2018-07-14T13:24:31.520Z,4.10
2018-07-14T13:27:00.375Z,3.87
2018-07-14T13:29:29.248Z,4.40
2018-07-14T13:31:58.211Z,3.83
2018-07-14T13:34:27.176Z,4.50
2018-07-14T13:36:56.041Z,4.00
2018-07-14T13:39:25.008Z,5.20
2018-07-14T13:41:53.865Z,5.27
2018-07-14T13:44:22.768Z,5.30
2018-07-14T13:46:51.671Z,4.80
2018-07-14T13:49:20.594Z,4.87
2018-07-14T13:51:49.483Z,5.00
2018-07-14T13:54:18.386Z,5.20
2018-07-14T13:56:47.412Z,5.03
2018-07-14T13:59:16.295Z,5.30
2018-07-14T14:01:45.147Z,5.30
2018-07-14T14:04:14.140Z,5.30
2018-07-14T14:06:43.020Z,4.83
2018-07-14T14:09:11.903Z,5.20
2018-07-14T14:11:40.731Z,5.47
2018-07-14T14:14:09.632Z,5.37
2018-07-14T14:16:38.535Z,5.07
2018-07-14T14:19:07.477Z,5.23
2018-07-14T14:21:36.332Z,4.63
2018-07-14T14:24:05.243Z,5.37
2018-07-14T14:26:34.100Z,5.67
2018-07-14T14:29:03.059Z,5.37
2018-07-14T14:31:31.936Z,5.10
2018-07-14T14:34:00.853Z,5.03
2018-07-14T14:36:29.647Z,5.17
2018-07-14T14:38:58.883Z,5.60
2018-07-14T14:41:27.783Z,4.70
2018-07-14T14:43:56.708Z,5.60
2018-07-14T14:46:25.688Z,4.90
2018-07-14T14:48:54.544Z,5.10
2018-07-14T14:51:23.705Z,5.13
2018-07-14T14:53:52.773Z,5.97
2018-07-14T14:56:21.708Z,4.63
2018-07-14T14:58:50.607Z,4.60
2018-07-14T15:01:19.487Z,4.60
2018-07-14T15:03:48.358Z,4.23
2018-07-14T15:06:17.823Z,4.50
2018-07-14T15:08:46.776Z,4.73
2018-07-14T15:11:15.687Z,5.20
2018-07-14T15:13:44.571Z,4.60
2018-07-14T15:16:13.608Z,4.63
2018-07-14T15:18:42.473Z,5.03
2018-07-14T15:21:11.359Z,5.67
2018-07-14T15:23:40.278Z,5.27
2018-07-14T15:26:09.273Z,4.47
2018-07-14T15:28:38.063Z,4.93
2018-07-14T15:31:07.443Z,5.50
2018-07-14T15:33:36.220Z,5.50
2018-07-14T15:36:05.511Z,5.07
2018-07-14T15:38:34.387Z,5.90
2018-07-14T15:41:03.307Z,5.40
2018-07-14T15:43:32.168Z,6.23
2018-07-14T15:46:01.012Z,9.57
2018-07-14T15:48:29.798Z,5.50
2018-07-14T15:50:58.652Z,4.57
2018-07-14T15:53:27.536Z,5.40
2018-07-14T15:55:56.452Z,4.40
2018-07-14T15:58:25.301Z,5.23
2018-07-14T16:00:54.386Z,5.63
2018-07-14T16:03:23.512Z,5.30
2018-07-14T16:05:52.403Z,5.13
2018-07-14T16:08:21.263Z,4.83
2018-07-14T16:10:51.311Z,4.83
2018-07-14T16:13:20.252Z,5.10
2018-07-14T16:15:49.128Z,4.53
2018-07-14T16:18:17.977Z,4.77
2018-07-14T16:20:46.811Z,4.80
2018-07-14T16:23:15.696Z,5.03
2018-07-14T16:25:44.552Z,5.40
2018-07-14T16:28:13.428Z,4.50
2018-07-14T16:30:42.656Z,4.77
2018-07-14T16:33:11.556Z,5.00
2018-07-14T16:35:40.548Z,4.97
2018-07-14T16:38:09.340Z,4.87
2018-07-14T16:40:38.299Z,4.70
2018-07-14T16:43:07.187Z,4.63
2018-07-14T16:45:36.155Z,4.10
2018-07-14T16:48:05.119Z,4.87
2018-07-14T16:50:34.024Z,5.27
2018-07-14T16:53:02.923Z,4.27
2018-07-14T16:55:31.856Z,4.57
2018-07-14T16:58:00.846Z,4.50
2018-07-14T17:00:29.755Z,4.90
2018-07-14T17:02:58.630Z,4.90
2018-07-14T17:05:27.561Z,5.27
2018-07-14T17:07:56.443Z,4.70
2018-07-14T17:10:25.316Z,4.57
2018-07-14T17:12:54.175Z,4.73
2018-07-14T17:15:23.065Z,4.80
2018-07-14T17:17:51.971Z,4.47
2018-07-14T17:20:21.206Z,4.10
2018-07-14T17:22:50.176Z,4.67
2018-07-14T17:25:19.061Z,5.20
2018-07-14T17:27:48.384Z,3.90
2018-07-14T17:30:17.293Z,4.70
2018-07-14T17:32:46.187Z,8.90
2018-07-14T17:35:15.056Z,10.63
2018-07-14T17:37:43.952Z,5.30
2018-07-14T17:40:12.799Z,3.53
2018-07-14T17:42:41.830Z,3.00
2018-07-14T17:45:10.758Z,2.37
2018-07-14T17:47:39.667Z,2.13
2018-07-14T17:50:08.514Z,2.63
2018-07-14T17:52:37.370Z,2.20
2018-07-14T17:55:06.342Z,2.30
2018-07-14T17:57:35.968Z,1.97
2018-07-14T18:00:05.095Z,3.00
2018-07-14T18:02:33.981Z,2.83
2018-07-14T18:05:02.903Z,2.77
2018-07-14T18:07:31.768Z,2.53
2018-07-14T18:10:00.632Z,2.67
2018-07-14T18:12:29.532Z,2.60
2018-07-14T18:14:58.412Z,2.30
2018-07-14T18:17:27.304Z,2.20
2018-07-14T18:19:56.191Z,2.20
2018-07-14T18:22:25.080Z,2.53
2018-07-14T18:24:53.947Z,2.67
2018-07-14T18:27:22.832Z,2.70
2018-07-14T18:29:51.667Z,3.03
2018-07-14T18:32:21.379Z,3.77
2018-07-14T18:34:50.260Z,3.90
2018-07-14T18:37:19.203Z,3.57
2018-07-14T18:39:47.937Z,3.90
2018-07-14T18:42:16.851Z,5.03
2018-07-14T18:44:45.696Z,5.23
2018-07-14T18:47:14.572Z,4.90
2018-07-14T18:49:43.468Z,5.60
2018-07-14T18:52:12.938Z,5.10
2018-07-14T18:54:41.880Z,4.87
2018-07-14T18:57:10.775Z,5.03
2018-07-14T18:59:39.696Z,4.43
2018-07-14T19:02:08.627Z,4.70
2018-07-14T19:04:37.688Z,5.33
2018-07-14T19:07:06.660Z,5.30
2018-07-14T19:09:35.472Z,4.90
2018-07-14T19:12:04.416Z,4.80
2018-07-14T19:14:33.675Z,5.00
2018-07-14T19:17:02.459Z,5.33
2018-07-14T19:19:31.240Z,5.27
2018-07-14T19:22:00.148Z,6.47
2018-07-14T19:24:29.079Z,5.50
2018-07-14T19:26:57.960Z,5.30
2018-07-14T19:29:26.840Z,5.27
2018-07-14T19:31:55.737Z,6.27
2018-07-14T19:34:24.628Z,5.73
2018-07-14T19:36:53.532Z,6.77
2018-07-14T19:39:22.399Z,5.17
2018-07-14T19:41:51.500Z,5.60
2018-07-14T19:44:20.404Z,5.67
2018-07-14T19:46:49.292Z,6.00
2018-07-14T19:49:18.203Z,6.13
2018-07-14T19:51:47.119Z,5.93
2018-07-14T19:54:16.234Z,5.70
2018-07-14T19:56:45.116Z,5.10
2018-07-14T19:59:14.320Z,5.40
2018-07-14T20:01:43.281Z,5.83
2018-07-14T20:04:12.274Z,5.70
2018-07-14T20:06:41.297Z,5.07
2018-07-14T20:09:10.908Z,5.40
2018-07-14T20:11:39.928Z,4.87
2018-07-14T20:14:09.465Z,4.80
2018-07-14T20:16:38.467Z,5.47
2018-07-14T20:19:07.941Z,5.43
2018-07-14T20:21:36.963Z,5.50
2018-07-14T20:24:06.983Z,5.50
2018-07-14T20:26:36.115Z,5.40
2018-07-14T20:29:05.311Z,5.23
2018-07-14T20:31:34.472Z,4.77
2018-07-14T20:34:03.394Z,5.33
2018-07-14T20:36:32.843Z,5.70
2018-07-14T20:39:01.718Z,5.20
2018-07-14T20:41:31.100Z,5.80
2018-07-14T20:43:59.880Z,5.80
2018-07-14T20:46:28.939Z,5.50
2018-07-14T20:48:57.807Z,5.50
2018-07-14T20:51:26.684Z,5.30
2018-07-14T20:53:55.567Z,5.53
2018-07-14T20:56:24.463Z,4.83
2018-07-14T20:58:53.318Z,6.10
2018-07-14T21:01:22.668Z,6.80
2018-07-14T21:03:51.680Z,5.63
2018-07-14T21:06:20.795Z,5.43
2018-07-14T21:08:49.597Z,5.63
2018-07-14T21:11:18.382Z,5.40
2018-07-14T21:13:47.313Z,5.60
2018-07-14T21:16:16.209Z,6.90
2018-07-14T21:18:45.191Z,6.27
2018-07-14T21:21:14.148Z,5.83
2018-07-14T21:23:43.080Z,5.13
2018-07-14T21:26:11.973Z,5.17
2018-07-14T21:28:41.009Z,6.00
2018-07-14T21:31:09.948Z,5.43
2018-07-14T21:33:38.821Z,5.43
2018-07-14T21:36:07.607Z,5.47
2018-07-14T21:38:35.842Z,6.20
2018-07-14T21:41:04.955Z,6.30
2018-07-14T21:43:33.868Z,6.63
2018-07-14T21:46:02.728Z,5.57
2018-07-14T21:48:31.637Z,7.00
2018-07-14T21:51:00.517Z,6.80
2018-07-14T21:53:29.379Z,6.20
2018-07-14T21:55:58.267Z,6.23
2018-07-14T21:58:27.099Z,5.70
2018-07-14T22:01:05.108Z,5.97
2018-07-14T22:03:35.192Z,6.00
2018-07-14T22:06:04.625Z,5.83
2018-07-14T22:08:33.385Z,5.83
2018-07-14T22:11:02.365Z,5.80
2018-07-14T22:13:31.232Z,5.53
2018-07-14T22:16:00.088Z,5.00
2018-07-14T22:18:28.976Z,5.83
2018-07-14T22:20:57.892Z,5.67
2018-07-14T22:23:27.669Z,5.70
2018-07-14T22:25:56.548Z,6.80
2018-07-14T22:28:25.431Z,6.63
2018-07-14T22:30:54.312Z,5.93
2018-07-14T22:33:23.240Z,5.80
2018-07-14T22:35:52.284Z,6.10
2018-07-14T22:38:21.176Z,5.80
2018-07-14T22:40:49.902Z,5.37
2018-07-14T22:43:18.787Z,5.90
2018-07-14T22:45:47.671Z,5.77
2018-07-14T22:48:16.541Z,6.67
2018-07-14T22:50:45.487Z,5.90
2018-07-14T22:53:14.345Z,6.23
2018-07-14T22:55:43.272Z,6.00
2018-07-14T22:58:12.116Z,6.07
2018-07-14T23:00:41.036Z,5.40
2018-07-14T23:03:09.958Z,6.37
2018-07-14T23:05:38.729Z,6.50
2018-07-14T23:08:07.682Z,5.50
2018-07-14T23:10:36.552Z,6.73
2018-07-14T23:13:05.439Z,5.97
2018-07-14T23:15:34.318Z,6.60
2018-07-14T23:18:03.472Z,5.60
2018-07-14T23:20:32.395Z,7.20
2018-07-14T23:23:01.269Z,5.60
2018-07-14T23:25:30.152Z,7.13
2018-07-14T23:27:59.013Z,5.90
2018-07-14T23:30:27.896Z,7.27
2018-07-14T23:32:56.779Z,6.90
2018-07-14T23:35:25.659Z,6.20
2018-07-14T23:37:54.585Z,5.17
2018-07-14T23:40:23.512Z,6.43
2018-07-14T23:42:52.395Z,6.20
2018-07-14T23:45:21.150Z,5.97
2018-07-14T23:47:50.037Z,5.60
2018-07-14T23:50:18.927Z,6.10
2018-07-14T23:52:47.817Z,5.67
2018-07-14T23:55:16.706Z,6.67
2018-07-14T23:57:45.575Z,6.80
